KARA/ARA METAR and TAF weather

Enter ICAO airport designator
Station Type Date Time Source
KARA METAR 2019/08/25 02:53 UTC NOAA

KARA 250253Z AUTO 10004KT 10SM CLR 25/25 A2996 RMK AO2 SLP145 T02500250 53012


Station Type Date Time Source
KARA Decoded METAR 2019/08/25 02:53 UTC NOAA

Station name not available
Aug 24, 2019 - 10:53 PM EDT / 2019.08.25 0253 UTC
Wind: from the E (100 degrees) at 5 MPH (4 KT):0
Visibility: 10 mile(s):0
Sky conditions: clear
Temperature: 77.0 F (25.0 C)
Dew Point: 77.0 F (25.0 C)
Relative Humidity: 100%
Pressure (altimeter): 29.96 in. Hg (1014 hPa)
Pressure tendency: 0.04 inches (1.2 hPa) higher than three hours ago
ob: KARA 250253Z AUTO 10004KT 10SM CLR 25/25 A2996 RMK AO2 SLP145 T02500250 53012
cycle: 3

Station Type Date Time Source
KARA TAF 2019/08/24 18:30 UTC NOAA

TAF KARA 241726Z 2418/2518 17009G19KT 5SM -SHRA BKN030 OVC070
TEMPO 2418/2422 2SM SHRA BR BKN006
FM242200 19011KT P6SM VCSH SCT035 OVC100
FM250200 VRB05KT P6SM VCSH SCT025 OVC050

Example: see airport list